Hlavní strana
METAR-TAF:

METAR-TAF

Letiště :

Gabès, Tunisko

zeměpisná šířka: 33-53N, zeměpisná délka: 010-06E, výška: 4 m

Aktuální stav počasí

Zpráva byla vytvořena před 45 minutami, v 05:00 UTC
Západojihozápadní vítr 21 kt
Teplota 10°C
Vlhkost vzduchu 57%
Tlak 1014 hPa
Viditelnost: 8000 m
Polojasno ve výšce 3000 ft

METAR: DTTG 240500Z 24021KT 8000 SCT030 10/02 Q1014 NOSIG

Čas: 06:45 (05:45 UTC)

Předpověď počasí

Zpráva byla vytvořena před 2 hodinami a 45 minutami, v 03:00 UTC
Předpověď platná od 24 v 04 UTC do 24 v 13 UTC
Jihozápadní vítr 10 kt
Viditelnost: 8000 m
Polojasno ve výšce 3000 ft
Změna
od 24 v 04 UTC do 24 v 06 UTC
Jihozápadní vítr 20 kt s nárazy do 30 kt

TAF: DTTG 240300Z 2404/2413 22010KT 8000 SCT030 BECMG 2404/2406 23020G30KT

Stav a předpovědi počasí z více než 4 000 letišť (zprávy METAR a TAF).

Červené a žluté tečky na mapě představují dostupné meteorologické stanice.

Když kurzor umístíte na tečku, zobrazí se název stanice.

Pak kliknutím zobrazíte stav a předpověď počasí.

Chcete-li změnit mapu, kliknutím na zelené tlačítko se znaménkem +mapu přiblížíte, kliknutím na zelené tlačítko se znaménkem – mapu oddálíte a kliknutím na zelené šipky přejdete na sousední mapy.


METAR-TAF: